sensor_id;sensor_type;location;lat;lon;timestamp;temperature;humidity
52979;DHT22;63430;53.186;6.598;2024-03-22T00:03:42;9.60;99.90
52979;DHT22;63430;53.186;6.598;2024-03-22T00:08:46;9.60;99.90
52979;DHT22;63430;53.186;6.598;2024-03-22T00:13:48;9.70;99.90
52979;DHT22;63430;53.186;6.598;2024-03-22T00:18:49;9.70;99.90
52979;DHT22;63430;53.186;6.598;2024-03-22T00:23:54;9.70;99.90
52979;DHT22;63430;53.186;6.598;2024-03-22T00:28:57;9.70;99.90
52979;DHT22;63430;53.186;6.598;2024-03-22T00:34:01;9.80;99.90
52979;DHT22;63430;53.186;6.598;2024-03-22T00:39:05;9.70;99.90
52979;DHT22;63430;53.186;6.598;2024-03-22T00:44:06;9.80;99.90
52979;DHT22;63430;53.186;6.598;2024-03-22T00:49:08;9.80;99.90
52979;DHT22;63430;53.186;6.598;2024-03-22T00:54:12;9.80;99.90
52979;DHT22;63430;53.186;6.598;2024-03-22T00:59:13;9.80;99.90
52979;DHT22;63430;53.186;6.598;2024-03-22T01:04:15;9.80;99.90
52979;DHT22;63430;53.186;6.598;2024-03-22T01:09:19;9.80;99.90
52979;DHT22;63430;53.186;6.598;2024-03-22T01:14:20;9.80;99.90
52979;DHT22;63430;53.186;6.598;2024-03-22T01:19:22;9.90;99.90
52979;DHT22;63430;53.186;6.598;2024-03-22T01:24:26;9.80;99.90
52979;DHT22;63430;53.186;6.598;2024-03-22T01:29:28;9.90;99.90
52979;DHT22;63430;53.186;6.598;2024-03-22T01:34:32;9.90;99.90
52979;DHT22;63430;53.186;6.598;2024-03-22T01:39:36;9.90;99.90
52979;DHT22;63430;53.186;6.598;2024-03-22T01:44:37;9.90;99.90
52979;DHT22;63430;53.186;6.598;2024-03-22T01:49:39;9.90;99.90
52979;DHT22;63430;53.186;6.598;2024-03-22T01:54:43;9.90;99.90
52979;DHT22;63430;53.186;6.598;2024-03-22T01:59:46;10.00;99.90
52979;DHT22;63430;53.186;6.598;2024-03-22T02:04:50;10.00;99.90
52979;DHT22;63430;53.186;6.598;2024-03-22T02:09:54;10.00;99.90
52979;DHT22;63430;53.186;6.598;2024-03-22T02:14:57;10.00;99.90
52979;DHT22;63430;53.186;6.598;2024-03-22T02:19:59;10.00;99.90
52979;DHT22;63430;53.186;6.598;2024-03-22T02:25:03;10.00;99.90
52979;DHT22;63430;53.186;6.598;2024-03-22T02:30:08;10.00;99.90
52979;DHT22;63430;53.186;6.598;2024-03-22T02:35:10;10.00;99.90
52979;DHT22;63430;53.186;6.598;2024-03-22T02:40:15;10.00;99.90
52979;DHT22;63430;53.186;6.598;2024-03-22T02:45:16;10.00;99.90
52979;DHT22;63430;53.186;6.598;2024-03-22T02:50:18;10.10;99.90
52979;DHT22;63430;53.186;6.598;2024-03-22T02:55:22;10.10;99.90
52979;DHT22;63430;53.186;6.598;2024-03-22T03:00:23;10.10;99.90
52979;DHT22;63430;53.186;6.598;2024-03-22T03:05:25;10.10;99.90
52979;DHT22;63430;53.186;6.598;2024-03-22T03:10:29;10.10;99.90
52979;DHT22;63430;53.186;6.598;2024-03-22T03:15:30;10.10;99.90
52979;DHT22;63430;53.186;6.598;2024-03-22T03:20:31;10.10;99.90
52979;DHT22;63430;53.186;6.598;2024-03-22T03:25:35;10.20;99.90
52979;DHT22;63430;53.186;6.598;2024-03-22T03:30:39;10.20;99.90
52979;DHT22;63430;53.186;6.598;2024-03-22T03:35:40;10.20;99.90
52979;DHT22;63430;53.186;6.598;2024-03-22T03:40:48;10.20;99.90
52979;DHT22;63430;53.186;6.598;2024-03-22T03:45:50;10.20;99.90
52979;DHT22;63430;53.186;6.598;2024-03-22T03:50:52;10.20;99.90
52979;DHT22;63430;53.186;6.598;2024-03-22T03:55:56;10.30;99.90
52979;DHT22;63430;53.186;6.598;2024-03-22T04:00:58;10.30;99.90
52979;DHT22;63430;53.186;6.598;2024-03-22T04:05:59;10.30;99.90
52979;DHT22;63430;53.186;6.598;2024-03-22T04:11:04;10.30;99.90
52979;DHT22;63430;53.186;6.598;2024-03-22T04:16:06;10.40;99.90
52979;DHT22;63430;53.186;6.598;2024-03-22T04:21:07;10.40;99.90
52979;DHT22;63430;53.186;6.598;2024-03-22T04:26:11;10.40;99.90
52979;DHT22;63430;53.186;6.598;2024-03-22T04:31:14;10.40;99.90
52979;DHT22;63430;53.186;6.598;2024-03-22T04:36:16;10.40;99.90
52979;DHT22;63430;53.186;6.598;2024-03-22T04:41:20;10.40;99.90
52979;DHT22;63430;53.186;6.598;2024-03-22T04:46:22;10.40;99.90
52979;DHT22;63430;53.186;6.598;2024-03-22T04:51:23;10.40;99.90
52979;DHT22;63430;53.186;6.598;2024-03-22T04:56:28;10.40;99.90
52979;DHT22;63430;53.186;6.598;2024-03-22T05:01:29;10.40;99.90
52979;DHT22;63430;53.186;6.598;2024-03-22T05:06:30;10.40;99.90
52979;DHT22;63430;53.186;6.598;2024-03-22T05:11:35;10.40;99.90
52979;DHT22;63430;53.186;6.598;2024-03-22T05:16:36;10.40;99.90
52979;DHT22;63430;53.186;6.598;2024-03-22T05:21:37;10.40;99.90
52979;DHT22;63430;53.186;6.598;2024-03-22T05:26:41;10.40;99.90
52979;DHT22;63430;53.186;6.598;2024-03-22T05:31:48;10.40;99.90
52979;DHT22;63430;53.186;6.598;2024-03-22T05:36:50;10.40;99.90
52979;DHT22;63430;53.186;6.598;2024-03-22T05:41:54;10.40;99.90
52979;DHT22;63430;53.186;6.598;2024-03-22T05:46:55;10.50;99.90
52979;DHT22;63430;53.186;6.598;2024-03-22T05:51:57;10.40;99.90
52979;DHT22;63430;53.186;6.598;2024-03-22T05:57:02;10.30;99.90
52979;DHT22;63430;53.186;6.598;2024-03-22T06:02:05;10.30;99.90
52979;DHT22;63430;53.186;6.598;2024-03-22T06:07:06;10.30;99.90
52979;DHT22;63430;53.186;6.598;2024-03-22T06:12:10;10.30;99.90
52979;DHT22;63430;53.186;6.598;2024-03-22T06:17:12;10.30;99.90
52979;DHT22;63430;53.186;6.598;2024-03-22T06:22:13;10.20;99.90
52979;DHT22;63430;53.186;6.598;2024-03-22T06:27:17;10.20;99.90
52979;DHT22;63430;53.186;6.598;2024-03-22T06:32:19;10.10;99.90
52979;DHT22;63430;53.186;6.598;2024-03-22T06:37:23;10.10;99.90
52979;DHT22;63430;53.186;6.598;2024-03-22T06:42:27;10.10;99.90
52979;DHT22;63430;53.186;6.598;2024-03-22T06:47:28;10.10;99.90
52979;DHT22;63430;53.186;6.598;2024-03-22T06:52:30;10.10;99.90
52979;DHT22;63430;53.186;6.598;2024-03-22T06:57:34;10.10;99.90
52979;DHT22;63430;53.186;6.598;2024-03-22T07:02:35;10.20;99.90
52979;DHT22;63430;53.186;6.598;2024-03-22T07:07:37;10.10;99.90
52979;DHT22;63430;53.186;6.598;2024-03-22T07:12:41;10.20;99.90
52979;DHT22;63430;53.186;6.598;2024-03-22T07:17:42;10.20;99.90
52979;DHT22;63430;53.186;6.598;2024-03-22T07:22:44;10.10;99.90
52979;DHT22;63430;53.186;6.598;2024-03-22T07:27:48;10.10;99.90
52979;DHT22;63430;53.186;6.598;2024-03-22T07:32:51;10.10;99.90
52979;DHT22;63430;53.186;6.598;2024-03-22T07:37:52;10.10;99.90
52979;DHT22;63430;53.186;6.598;2024-03-22T07:42:56;10.10;99.90
52979;DHT22;63430;53.186;6.598;2024-03-22T07:47:58;10.10;99.90
52979;DHT22;63430;53.186;6.598;2024-03-22T07:52:59;10.10;99.90
52979;DHT22;63430;53.186;6.598;2024-03-22T07:58:04;10.10;99.90
52979;DHT22;63430;53.186;6.598;2024-03-22T08:03:08;10.10;99.90
52979;DHT22;63430;53.186;6.598;2024-03-22T08:08:14;10.10;99.90
52979;DHT22;63430;53.186;6.598;2024-03-22T08:13:19;10.10;99.90
52979;DHT22;63430;53.186;6.598;2024-03-22T08:18:20;10.20;99.90
52979;DHT22;63430;53.186;6.598;2024-03-22T08:23:22;10.20;99.90
52979;DHT22;63430;53.186;6.598;2024-03-22T08:28:26;10.20;99.90
52979;DHT22;63430;53.186;6.598;2024-03-22T08:33:28;10.30;99.90
52979;DHT22;63430;53.186;6.598;2024-03-22T08:38:30;10.20;99.90
52979;DHT22;63430;53.186;6.598;2024-03-22T08:43:34;10.30;99.90
52979;DHT22;63430;53.186;6.598;2024-03-22T08:48:35;10.30;99.90
52979;DHT22;63430;53.186;6.598;2024-03-22T08:53:37;10.30;99.90
52979;DHT22;63430;53.186;6.598;2024-03-22T08:58:41;10.30;99.90
52979;DHT22;63430;53.186;6.598;2024-03-22T09:03:42;10.30;99.90
52979;DHT22;63430;53.186;6.598;2024-03-22T09:08:47;10.30;99.90
52979;DHT22;63430;53.186;6.598;2024-03-22T09:13:52;10.30;99.90
52979;DHT22;63430;53.186;6.598;2024-03-22T09:18:53;10.30;99.90
52979;DHT22;63430;53.186;6.598;2024-03-22T09:23:55;10.30;99.90
52979;DHT22;63430;53.186;6.598;2024-03-22T09:28:59;10.30;99.90
52979;DHT22;63430;53.186;6.598;2024-03-22T09:34:03;10.30;99.90
52979;DHT22;63430;53.186;6.598;2024-03-22T09:39:05;10.30;99.90
52979;DHT22;63430;53.186;6.598;2024-03-22T09:44:12;10.30;99.90
52979;DHT22;63430;53.186;6.598;2024-03-22T09:49:14;10.30;99.90
52979;DHT22;63430;53.186;6.598;2024-03-22T09:54:16;10.30;99.90
52979;DHT22;63430;53.186;6.598;2024-03-22T09:59:20;10.30;99.90
52979;DHT22;63430;53.186;6.598;2024-03-22T10:04:22;10.30;99.90
52979;DHT22;63430;53.186;6.598;2024-03-22T10:09:28;10.40;99.90
52979;DHT22;63430;53.186;6.598;2024-03-22T10:14:33;10.40;99.90
52979;DHT22;63430;53.186;6.598;2024-03-22T10:19:36;10.50;99.90
52979;DHT22;63430;53.186;6.598;2024-03-22T10:24:38;10.50;99.90
52979;DHT22;63430;53.186;6.598;2024-03-22T10:29:42;10.50;99.90
52979;DHT22;63430;53.186;6.598;2024-03-22T10:34:45;10.60;99.90
52979;DHT22;63430;53.186;6.598;2024-03-22T10:39:48;10.60;99.90
52979;DHT22;63430;53.186;6.598;2024-03-22T10:44:54;10.60;99.90
52979;DHT22;63430;53.186;6.598;2024-03-22T10:50:00;10.70;99.90
52979;DHT22;63430;53.186;6.598;2024-03-22T10:55:03;10.60;99.90
52979;DHT22;63430;53.186;6.598;2024-03-22T11:00:12;10.60;99.90
52979;DHT22;63430;53.186;6.598;2024-03-22T11:05:17;10.60;99.90
52979;DHT22;63430;53.186;6.598;2024-03-22T11:10:19;10.70;99.90
52979;DHT22;63430;53.186;6.598;2024-03-22T11:15:23;10.90;99.90
52979;DHT22;63430;53.186;6.598;2024-03-22T11:20:25;10.90;99.90
52979;DHT22;63430;53.186;6.598;2024-03-22T11:25:26;10.90;99.90
52979;DHT22;63430;53.186;6.598;2024-03-22T11:30:32;11.00;99.90
52979;DHT22;63430;53.186;6.598;2024-03-22T11:35:35;11.00;99.90
52979;DHT22;63430;53.186;6.598;2024-03-22T11:40:37;11.00;99.90
52979;DHT22;63430;53.186;6.598;2024-03-22T11:45:42;11.00;99.90
52979;DHT22;63430;53.186;6.598;2024-03-22T11:50:46;10.90;99.90
52979;DHT22;63430;53.186;6.598;2024-03-22T11:55:49;10.90;99.90
52979;DHT22;63430;53.186;6.598;2024-03-22T12:00:53;10.80;99.90
52979;DHT22;63430;53.186;6.598;2024-03-22T12:05:55;10.70;99.90
52979;DHT22;63430;53.186;6.598;2024-03-22T12:10:58;10.70;99.90
52979;DHT22;63430;53.186;6.598;2024-03-22T12:16:04;10.60;99.90
52979;DHT22;63430;53.186;6.598;2024-03-22T12:21:05;10.40;99.90
52979;DHT22;63430;53.186;6.598;2024-03-22T12:26:08;10.40;99.90
52979;DHT22;63430;53.186;6.598;2024-03-22T12:31:12;10.30;99.90
52979;DHT22;63430;53.186;6.598;2024-03-22T12:36:16;10.50;99.90
52979;DHT22;63430;53.186;6.598;2024-03-22T12:41:18;10.80;99.90
52979;DHT22;63430;53.186;6.598;2024-03-22T12:46:22;10.90;99.90
52979;DHT22;63430;53.186;6.598;2024-03-22T12:51:24;10.90;99.90
52979;DHT22;63430;53.186;6.598;2024-03-22T12:56:25;10.90;99.90
52979;DHT22;63430;53.186;6.598;2024-03-22T13:01:31;10.90;99.90
52979;DHT22;63430;53.186;6.598;2024-03-22T13:06:32;10.90;99.90
52979;DHT22;63430;53.186;6.598;2024-03-22T13:11:35;11.00;99.90
52979;DHT22;63430;53.186;6.598;2024-03-22T13:16:39;11.00;99.90
52979;DHT22;63430;53.186;6.598;2024-03-22T13:21:41;11.00;99.90
52979;DHT22;63430;53.186;6.598;2024-03-22T13:26:42;11.00;99.90
52979;DHT22;63430;53.186;6.598;2024-03-22T13:31:47;11.00;99.90
52979;DHT22;63430;53.186;6.598;2024-03-22T13:36:50;11.00;99.90
52979;DHT22;63430;53.186;6.598;2024-03-22T13:41:52;10.90;99.90
52979;DHT22;63430;53.186;6.598;2024-03-22T13:46:56;10.80;99.90
52979;DHT22;63430;53.186;6.598;2024-03-22T13:51:58;10.80;99.90
52979;DHT22;63430;53.186;6.598;2024-03-22T13:57:00;10.70;99.90
52979;DHT22;63430;53.186;6.598;2024-03-22T14:02:05;10.70;99.90
52979;DHT22;63430;53.186;6.598;2024-03-22T14:07:06;10.70;99.90
52979;DHT22;63430;53.186;6.598;2024-03-22T14:12:09;10.70;99.90
52979;DHT22;63430;53.186;6.598;2024-03-22T14:17:13;10.70;99.90
52979;DHT22;63430;53.186;6.598;2024-03-22T14:22:14;10.70;99.90
52979;DHT22;63430;53.186;6.598;2024-03-22T14:27:15;10.90;99.90
52979;DHT22;63430;53.186;6.598;2024-03-22T14:32:19;10.80;99.90
52979;DHT22;63430;53.186;6.598;2024-03-22T14:37:22;10.80;99.90
52979;DHT22;63430;53.186;6.598;2024-03-22T14:42:23;10.60;99.90
52979;DHT22;63430;53.186;6.598;2024-03-22T14:47:27;10.40;99.90
52979;DHT22;63430;53.186;6.598;2024-03-22T14:52:29;10.30;99.90
52979;DHT22;63430;53.186;6.598;2024-03-22T14:57:31;10.20;99.90
52979;DHT22;63430;53.186;6.598;2024-03-22T15:02:35;10.10;99.90
52979;DHT22;63430;53.186;6.598;2024-03-22T15:07:36;10.00;99.90
52979;DHT22;63430;53.186;6.598;2024-03-22T15:12:37;10.10;99.90
52979;DHT22;63430;53.186;6.598;2024-03-22T15:17:42;10.10;99.90
52979;DHT22;63430;53.186;6.598;2024-03-22T15:22:43;10.10;99.90
52979;DHT22;63430;53.186;6.598;2024-03-22T15:27:46;10.10;99.90
52979;DHT22;63430;53.186;6.598;2024-03-22T15:32:51;10.20;99.90
52979;DHT22;63430;53.186;6.598;2024-03-22T15:37:55;10.10;99.90
52979;DHT22;63430;53.186;6.598;2024-03-22T15:42:57;10.20;99.90
52979;DHT22;63430;53.186;6.598;2024-03-22T15:48:01;10.20;99.90
52979;DHT22;63430;53.186;6.598;2024-03-22T15:53:03;10.20;99.90
52979;DHT22;63430;53.186;6.598;2024-03-22T15:58:04;10.10;99.90
52979;DHT22;63430;53.186;6.598;2024-03-22T16:03:09;10.00;99.90
52979;DHT22;63430;53.186;6.598;2024-03-22T16:08:12;10.00;99.90
52979;DHT22;63430;53.186;6.598;2024-03-22T16:13:14;10.00;99.90
52979;DHT22;63430;53.186;6.598;2024-03-22T16:18:18;10.00;99.90
52979;DHT22;63430;53.186;6.598;2024-03-22T16:23:19;9.90;99.90
52979;DHT22;63430;53.186;6.598;2024-03-22T16:28:21;9.90;99.90
52979;DHT22;63430;53.186;6.598;2024-03-22T16:33:25;9.90;99.90
52979;DHT22;63430;53.186;6.598;2024-03-22T16:38:27;9.80;99.90
52979;DHT22;63430;53.186;6.598;2024-03-22T16:43:29;9.80;99.90
52979;DHT22;63430;53.186;6.598;2024-03-22T16:48:33;9.70;99.90
52979;DHT22;63430;53.186;6.598;2024-03-22T16:53:35;9.70;99.90
52979;DHT22;63430;53.186;6.598;2024-03-22T16:58:36;9.60;99.90
52979;DHT22;63430;53.186;6.598;2024-03-22T17:03:40;9.50;99.90
52979;DHT22;63430;53.186;6.598;2024-03-22T17:08:43;9.40;99.90
52979;DHT22;63430;53.186;6.598;2024-03-22T17:13:44;9.30;99.90
52979;DHT22;63430;53.186;6.598;2024-03-22T17:18:49;9.30;99.90
52979;DHT22;63430;53.186;6.598;2024-03-22T17:23:52;9.20;99.90
52979;DHT22;63430;53.186;6.598;2024-03-22T17:28:53;9.10;99.90
52979;DHT22;63430;53.186;6.598;2024-03-22T17:33:57;9.00;99.90
52979;DHT22;63430;53.186;6.598;2024-03-22T17:39:00;9.00;99.90
52979;DHT22;63430;53.186;6.598;2024-03-22T17:44:01;8.90;99.90
52979;DHT22;63430;53.186;6.598;2024-03-22T17:49:05;8.90;99.90
52979;DHT22;63430;53.186;6.598;2024-03-22T17:54:06;8.80;99.90
52979;DHT22;63430;53.186;6.598;2024-03-22T17:59:08;8.80;99.90
52979;DHT22;63430;53.186;6.598;2024-03-22T18:04:12;8.70;99.90
52979;DHT22;63430;53.186;6.598;2024-03-22T18:09:14;8.70;99.90
52979;DHT22;63430;53.186;6.598;2024-03-22T18:14:17;8.60;99.90
52979;DHT22;63430;53.186;6.598;2024-03-22T18:19:22;8.50;99.90
52979;DHT22;63430;53.186;6.598;2024-03-22T18:24:24;8.50;99.90
52979;DHT22;63430;53.186;6.598;2024-03-22T18:29:25;8.50;99.90
52979;DHT22;63430;53.186;6.598;2024-03-22T18:34:29;8.40;99.90
52979;DHT22;63430;53.186;6.598;2024-03-22T18:39:31;8.40;99.90
52979;DHT22;63430;53.186;6.598;2024-03-22T18:44:33;8.40;99.90
52979;DHT22;63430;53.186;6.598;2024-03-22T18:49:41;8.40;99.90
52979;DHT22;63430;53.186;6.598;2024-03-22T18:54:46;8.30;99.90
52979;DHT22;63430;53.186;6.598;2024-03-22T18:59:53;8.30;99.90
52979;DHT22;63430;53.186;6.598;2024-03-22T19:04:58;8.30;99.90
52979;DHT22;63430;53.186;6.598;2024-03-22T19:09:59;8.30;99.90
52979;DHT22;63430;53.186;6.598;2024-03-22T19:15:01;8.20;99.90
52979;DHT22;63430;53.186;6.598;2024-03-22T19:20:06;8.20;99.90
52979;DHT22;63430;53.186;6.598;2024-03-22T19:25:08;8.20;99.90
52979;DHT22;63430;53.186;6.598;2024-03-22T19:30:11;8.20;99.90
52979;DHT22;63430;53.186;6.598;2024-03-22T19:35:16;8.10;99.90
52979;DHT22;63430;53.186;6.598;2024-03-22T19:40:19;8.10;99.90
52979;DHT22;63430;53.186;6.598;2024-03-22T19:45:24;8.00;99.90
52979;DHT22;63430;53.186;6.598;2024-03-22T19:50:28;8.00;99.90
52979;DHT22;63430;53.186;6.598;2024-03-22T19:55:30;8.00;99.90
52979;DHT22;63430;53.186;6.598;2024-03-22T20:00:31;7.90;99.90
52979;DHT22;63430;53.186;6.598;2024-03-22T20:05:36;8.00;99.90
52979;DHT22;63430;53.186;6.598;2024-03-22T20:10:37;7.90;99.90
52979;DHT22;63430;53.186;6.598;2024-03-22T20:15:39;7.90;99.90
52979;DHT22;63430;53.186;6.598;2024-03-22T20:20:44;7.90;99.90
52979;DHT22;63430;53.186;6.598;2024-03-22T20:25:46;7.80;99.90
52979;DHT22;63430;53.186;6.598;2024-03-22T20:30:48;7.80;99.90
52979;DHT22;63430;53.186;6.598;2024-03-22T20:35:52;7.80;99.90
